Time,TemperatureF,DewpointF,PressureIn,WindDirection,WindDirectionDegrees,WindSpeedMPH,WindSpeedGustMPH,Humidity,HourlyPrecipIn,Conditions,Clouds,dailyrainin,SoftwareType,DateUTC
2013-02-10 00:00:00,11.7,0.5,30.19,NW,315,4.0,4.0,60,0.00,,,0.00,Wunderground v.1.15,2013-02-10 05:00:00,
2013-02-10 00:05:00,11.8,0.2,30.19,WNW,302,5.0,5.0,59,0.00,,,0.00,Wunderground v.1.15,2013-02-10 05:05:00,
2013-02-10 00:10:00,11.6,0.7,30.20,NNW,334,5.0,5.0,61,0.00,,,0.00,Wunderground v.1.15,2013-02-10 05:10:00,
2013-02-10 00:20:00,11.5,0.3,30.20,NW,312,3.0,5.0,60,0.00,,,0.00,Wunderground v.1.15,2013-02-10 05:20:00,
2013-02-10 00:25:00,11.6,0.4,30.20,WNW,287,3.0,5.0,60,0.00,,,0.00,Wunderground v.1.15,2013-02-10 05:25:00,
2013-02-10 00:30:00,11.7,0.5,30.20,SSW,193,2.0,2.0,60,0.00,,,0.00,Wunderground v.1.15,2013-02-10 05:30:00,
2013-02-10 00:40:00,11.4,0.5,30.21,WNW,292,1.0,2.0,61,0.00,,,0.00,Wunderground v.1.15,2013-02-10 05:40:00,
2013-02-10 00:45:00,11.2,0.4,30.21,SW,222,2.0,2.0,61,0.00,,,0.00,Wunderground v.1.15,2013-02-10 05:45:00,
2013-02-10 00:55:00,10.3,0.2,30.21,ESE,112,2.0,3.0,63,0.00,,,0.00,Wunderground v.1.15,2013-02-10 05:55:00,
2013-02-10 01:00:00,10.2,0.4,30.21,NW,306,2.0,2.0,64,0.00,,,0.00,Wunderground v.1.15,2013-02-10 06:00:00,
2013-02-10 01:05:00,9.7,0.3,30.20,NNE,16,1.0,5.0,65,0.00,,,0.00,Wunderground v.1.15,2013-02-10 06:05:00,
2013-02-10 01:15:00,9.6,0.2,30.20,SSE,167,1.0,2.0,65,0.00,,,0.00,Wunderground v.1.15,2013-02-10 06:15:00,
2013-02-10 01:20:00,9.5,-0.2,30.19,SE,139,1.0,4.0,64,0.00,,,0.00,Wunderground v.1.15,2013-02-10 06:20:00,
2013-02-10 01:30:00,9.7,0.0,30.20,SSE,165,1.0,1.0,64,0.00,,,0.00,Wunderground v.1.15,2013-02-10 06:30:00,
2013-02-10 01:35:00,10.4,-0.1,30.20,SE,136,1.0,1.0,62,0.00,,,0.00,Wunderground v.1.15,2013-02-10 06:35:00,
2013-02-10 01:40:00,11.0,0.2,30.21,NW,324,2.0,2.0,61,0.00,,,0.00,Wunderground v.1.15,2013-02-10 06:40:00,
2013-02-10 01:50:00,11.9,-0.1,30.21,SSE,148,3.0,4.0,58,0.00,,,0.00,Wunderground v.1.15,2013-02-10 06:50:00,
2013-02-10 01:55:00,12.1,0.1,30.21,NNW,345,3.0,4.0,58,0.00,,,0.00,Wunderground v.1.15,2013-02-10 06:55:00,
2013-02-10 02:05:00,12.4,0.0,30.21,NW,322,3.0,6.0,57,0.00,,,0.00,Wunderground v.1.15,2013-02-10 07:05:00,
2013-02-10 02:10:00,12.6,-0.2,30.21,West,278,4.0,4.0,56,0.00,,,0.00,Wunderground v.1.15,2013-02-10 07:10:00,
2013-02-10 02:20:00,12.5,-0.2,30.21,NW,309,5.0,9.0,56,0.00,,,0.00,Wunderground v.1.15,2013-02-10 07:20:00,
2013-02-10 02:25:00,12.9,-0.3,30.21,NW,310,6.0,9.0,55,0.00,,,0.00,Wunderground v.1.15,2013-02-10 07:25:00,
2013-02-10 02:35:00,13.7,-0.3,30.21,North,3,8.0,13.0,53,0.00,,,0.00,Wunderground v.1.15,2013-02-10 07:35:00,
2013-02-10 02:40:00,13.7,-0.3,30.20,WNW,300,9.0,9.0,53,0.00,,,0.00,Wunderground v.1.15,2013-02-10 07:40:00,
2013-02-10 02:50:00,13.7,-0.7,30.21,NW,319,9.0,10.0,52,0.00,,,0.00,Wunderground v.1.15,2013-02-10 07:50:00,
2013-02-10 02:55:00,13.8,-0.6,30.21,North,352,8.0,17.0,52,0.00,,,0.00,Wunderground v.1.15,2013-02-10 07:55:00,
2013-02-10 03:00:00,14.3,-1.0,30.21,NNE,20,10.0,24.0,50,0.00,,,0.00,Wunderground v.1.15,2013-02-10 08:00:00,
2013-02-10 03:10:00,14.8,-0.9,30.22,North,354,13.0,13.0,49,0.00,,,0.00,Wunderground v.1.15,2013-02-10 08:10:00,
2013-02-10 03:15:00,14.6,-1.1,30.22,NNW,333,13.0,14.0,49,0.00,,,0.00,Wunderground v.1.15,2013-02-10 08:15:00,
2013-02-10 03:25:00,14.4,-1.3,30.23,NW,325,13.0,29.0,49,0.00,,,0.00,Wunderground v.1.15,2013-02-10 08:25:00,
2013-02-10 03:30:00,14.1,-1.6,30.23,NW,305,13.0,13.0,49,0.00,,,0.00,Wunderground v.1.15,2013-02-10 08:30:00,
2013-02-10 03:35:00,14.4,-1.7,30.24,NNW,344,12.0,13.0,48,0.00,,,0.00,Wunderground v.1.15,2013-02-10 08:35:00,
2013-02-10 03:45:00,14.9,-2.6,30.24,NW,325,9.0,11.0,45,0.00,,,0.00,Wunderground v.1.15,2013-02-10 08:45:00,
2013-02-10 03:50:00,15.1,-2.5,30.24,North,354,7.0,9.0,45,0.00,,,0.00,Wunderground v.1.15,2013-02-10 08:50:00,
2013-02-10 04:00:00,15.5,-3.1,30.24,NNW,327,6.0,6.0,43,0.00,,,0.00,Wunderground v.1.15,2013-02-10 09:00:00,
2013-02-10 04:05:00,15.7,-3.4,30.24,West,278,5.0,6.0,42,0.00,,,0.00,Wunderground v.1.15,2013-02-10 09:05:00,
2013-02-10 04:15:00,15.5,-3.1,30.24,NNE,32,2.0,4.0,43,0.00,,,0.00,Wunderground v.1.15,2013-02-10 09:15:00,
2013-02-10 04:20:00,15.2,-3.3,30.24,NE,48,2.0,3.0,43,0.00,,,0.00,Wunderground v.1.15,2013-02-10 09:20:00,
2013-02-10 04:30:00,15.5,-4.1,30.24,NNW,334,3.0,3.0,41,0.00,,,0.00,Wunderground v.1.15,2013-02-10 09:30:00,
2013-02-10 04:35:00,16.0,-4.1,30.24,NE,52,3.0,3.0,40,0.00,,,0.00,Wunderground v.1.15,2013-02-10 09:35:00,
2013-02-10 04:45:00,16.4,-4.3,30.24,North,3,4.0,4.0,39,0.00,,,0.00,Wunderground v.1.15,2013-02-10 09:45:00,
2013-02-10 04:50:00,16.3,-4.4,30.24,NE,54,6.0,9.0,39,0.00,,,0.00,Wunderground v.1.15,2013-02-10 09:50:00,
2013-02-10 04:55:00,16.3,-4.4,30.24,NNE,26,6.0,9.0,39,0.00,,,0.00,Wunderground v.1.15,2013-02-10 09:55:00,
2013-02-10 05:05:00,16.4,-4.8,30.25,SE,138,4.0,6.0,38,0.00,,,0.00,Wunderground v.1.15,2013-02-10 10:05:00,
2013-02-10 05:10:00,16.2,-4.5,30.26,ENE,68,3.0,3.0,39,0.00,,,0.00,Wunderground v.1.15,2013-02-10 10:10:00,
2013-02-10 05:20:00,16.3,-4.9,30.27,West,280,3.0,6.0,38,0.00,,,0.00,Wunderground v.1.15,2013-02-10 10:20:00,